createdAt,value
2023-02-07T00:00:05.489Z,-0.42
2023-02-07T00:00:16.543Z,-0.47
2023-02-07T00:00:27.515Z,-0.47
2023-02-07T00:00:38.279Z,-0.45
2023-02-07T00:00:49.330Z,-0.42
2023-02-07T00:01:00.303Z,-0.42
2023-02-07T00:01:11.075Z,-0.45
2023-02-07T00:01:22.127Z,-0.42
2023-02-07T00:01:33.095Z,-0.42
2023-02-07T00:01:43.913Z,-0.39
2023-02-07T00:01:54.947Z,-0.42
2023-02-07T00:02:05.942Z,-0.42
2023-02-07T00:02:16.756Z,-0.41
2023-02-07T00:02:27.758Z,-0.42
2023-02-07T00:02:38.724Z,-0.45
2023-02-07T00:02:49.517Z,-0.45
2023-02-07T00:03:00.610Z,-0.45
2023-02-07T00:03:11.551Z,-0.42
2023-02-07T00:03:22.318Z,-0.39
2023-02-07T00:03:33.342Z,-0.44
2023-02-07T00:03:44.309Z,-0.55
2023-02-07T00:03:55.084Z,-0.41
2023-02-07T00:04:06.130Z,-0.50
2023-02-07T00:04:17.102Z,-0.54
2023-02-07T00:04:27.860Z,-0.45
2023-02-07T00:04:38.911Z,-0.48
2023-02-07T00:04:49.946Z,-0.47
2023-02-07T00:05:00.712Z,-0.45
2023-02-07T00:05:11.753Z,-0.51
2023-02-07T00:05:22.730Z,-0.51
2023-02-07T00:05:33.518Z,-0.45
2023-02-07T00:05:44.558Z,-0.50
2023-02-07T00:05:55.523Z,-0.47
2023-02-07T00:06:06.295Z,-0.45
2023-02-07T00:06:17.338Z,-0.47
2023-02-07T00:06:28.315Z,-0.47
2023-02-07T00:06:39.098Z,-0.45
2023-02-07T00:06:50.138Z,-0.45
2023-02-07T00:07:01.091Z,-0.50
2023-02-07T00:07:11.859Z,-0.51
2023-02-07T00:07:22.912Z,-0.51
2023-02-07T00:07:33.875Z,-0.51
2023-02-07T00:07:44.645Z,-0.44
2023-02-07T00:07:55.693Z,-0.48
2023-02-07T00:08:06.666Z,-0.45
2023-02-07T00:08:17.435Z,-0.52
2023-02-07T00:08:28.479Z,-0.45
2023-02-07T00:08:39.443Z,-0.44
2023-02-07T00:08:50.213Z,-0.50
2023-02-07T00:09:01.259Z,-0.51
2023-02-07T00:09:12.230Z,-0.48
2023-02-07T00:09:23.001Z,-0.51
2023-02-07T00:09:34.069Z,-0.52
2023-02-07T00:09:45.027Z,-0.48
2023-02-07T00:09:55.812Z,-0.47
2023-02-07T00:10:06.983Z,-0.52
2023-02-07T00:10:17.900Z,-0.50
2023-02-07T00:10:28.685Z,-0.44
2023-02-07T00:10:39.734Z,-0.52
2023-02-07T00:10:50.699Z,-0.50
2023-02-07T00:11:01.468Z,-0.48
2023-02-07T00:11:12.521Z,-0.45
2023-02-07T00:11:23.486Z,-0.52
2023-02-07T00:11:34.255Z,-0.48
2023-02-07T00:11:45.293Z,-0.60
2023-02-07T00:11:56.282Z,-0.45
2023-02-07T00:12:07.053Z,-0.50
2023-02-07T00:12:18.120Z,-0.52
2023-02-07T00:12:29.075Z,-0.55
2023-02-07T00:12:39.846Z,-0.57
2023-02-07T00:12:50.892Z,-0.57
2023-02-07T00:13:01.862Z,-0.60
2023-02-07T00:13:12.628Z,-0.47
2023-02-07T00:13:23.673Z,-0.52
2023-02-07T00:13:34.637Z,-0.55
2023-02-07T00:13:45.409Z,-0.52
2023-02-07T00:13:56.459Z,-0.57
2023-02-07T00:14:07.420Z,-0.50
2023-02-07T00:14:18.202Z,-0.57
2023-02-07T00:14:29.256Z,-0.54
2023-02-07T00:14:40.220Z,-0.54
2023-02-07T00:14:50.989Z,-0.50
2023-02-07T00:15:02.047Z,-0.54
2023-02-07T00:15:13.014Z,-0.57
2023-02-07T00:15:23.793Z,-0.54
2023-02-07T00:15:35.174Z,-0.55
2023-02-07T00:15:45.614Z,-0.54
2023-02-07T00:15:56.375Z,-0.51
2023-02-07T00:16:07.511Z,-0.52
2023-02-07T00:16:18.509Z,-0.57
2023-02-07T00:16:29.312Z,-0.51
2023-02-07T00:16:39.830Z,-0.54
2023-02-07T00:16:50.801Z,-0.57
2023-02-07T00:17:01.558Z,-0.50
2023-02-07T00:17:12.591Z,-0.51
2023-02-07T00:17:23.557Z,-0.52
2023-02-07T00:17:34.320Z,-0.52
2023-02-07T00:17:45.388Z,-0.51
2023-02-07T00:17:56.357Z,-0.59
2023-02-07T00:18:07.115Z,-0.51
2023-02-07T00:18:18.160Z,-0.50
2023-02-07T00:18:29.130Z,-0.59
2023-02-07T00:18:39.896Z,-0.55
2023-02-07T00:18:50.945Z,-0.62
2023-02-07T00:19:01.917Z,-0.52
2023-02-07T00:19:12.683Z,-0.55
2023-02-07T00:19:23.733Z,-0.54
2023-02-07T00:19:34.704Z,-0.57
2023-02-07T00:19:45.468Z,-0.55
2023-02-07T00:19:56.527Z,-0.54
2023-02-07T00:20:07.500Z,-0.57
2023-02-07T00:20:18.270Z,-0.51
2023-02-07T00:20:29.324Z,-0.59
2023-02-07T00:20:40.296Z,-0.63
2023-02-07T00:20:51.060Z,-0.59
2023-02-07T00:21:02.120Z,-0.59
2023-02-07T00:21:13.078Z,-0.55
2023-02-07T00:21:23.863Z,-0.55
2023-02-07T00:21:34.891Z,-0.54
2023-02-07T00:21:45.854Z,-0.60
2023-02-07T00:21:56.621Z,-0.54
2023-02-07T00:22:07.678Z,-0.55
2023-02-07T00:22:18.641Z,-0.57
2023-02-07T00:22:29.408Z,-0.55
2023-02-07T00:22:40.448Z,-0.57
2023-02-07T00:22:51.420Z,-0.51
2023-02-07T00:23:02.185Z,-0.54
2023-02-07T00:23:13.232Z,-0.60
2023-02-07T00:23:24.199Z,-0.59
2023-02-07T00:23:34.969Z,-0.54
2023-02-07T00:23:46.017Z,-0.59
2023-02-07T00:23:56.999Z,-0.63
2023-02-07T00:24:07.788Z,-0.65
2023-02-07T00:24:18.792Z,-0.57
2023-02-07T00:24:29.759Z,-0.63
2023-02-07T00:24:40.553Z,-0.62
2023-02-07T00:24:51.580Z,-0.60
2023-02-07T00:25:02.554Z,-0.63
2023-02-07T00:25:13.320Z,-0.60
2023-02-07T00:25:24.365Z,-0.60
2023-02-07T00:25:35.577Z,-0.59
2023-02-07T00:25:46.343Z,-0.68
2023-02-07T00:25:57.395Z,-0.62
2023-02-07T00:26:08.359Z,-0.59
2023-02-07T00:26:19.128Z,-0.60
2023-02-07T00:26:30.174Z,-0.63
2023-02-07T00:26:41.137Z,-0.66
2023-02-07T00:26:51.904Z,-0.66
2023-02-07T00:27:02.951Z,-0.66
2023-02-07T00:27:13.920Z,-0.66
2023-02-07T00:27:24.686Z,-0.66
2023-02-07T00:27:35.765Z,-0.63
2023-02-07T00:27:46.822Z,-0.63
2023-02-07T00:27:57.659Z,-0.57
2023-02-07T00:28:08.252Z,-0.68
2023-02-07T00:28:19.272Z,-0.66
2023-02-07T00:28:30.067Z,-0.69
2023-02-07T00:28:40.683Z,-0.70
2023-02-07T00:28:51.697Z,-0.68
2023-02-07T00:29:02.437Z,-0.70
2023-02-07T00:29:13.481Z,-0.69
2023-02-07T00:29:24.452Z,-0.63
2023-02-07T00:29:35.219Z,-0.66
2023-02-07T00:29:46.293Z,-0.65
2023-02-07T00:29:57.246Z,-0.70
2023-02-07T00:30:08.038Z,-0.63
2023-02-07T00:30:19.154Z,-0.63
2023-02-07T00:30:30.160Z,-0.59
2023-02-07T00:30:40.995Z,-0.69
2023-02-07T00:30:51.608Z,-0.68
2023-02-07T00:31:02.178Z,-0.68
2023-02-07T00:31:13.066Z,-0.62
2023-02-07T00:31:23.691Z,-0.68
2023-02-07T00:31:34.244Z,-0.65
2023-02-07T00:31:45.148Z,-0.63
2023-02-07T00:31:55.614Z,-0.69
2023-02-07T00:32:06.584Z,-0.70
2023-02-07T00:32:17.364Z,-0.70
2023-02-07T00:32:28.399Z,-0.69
2023-02-07T00:32:39.373Z,-0.65
2023-02-07T00:32:50.138Z,-0.70
2023-02-07T00:33:01.186Z,-0.70
2023-02-07T00:33:12.156Z,-0.70
2023-02-07T00:33:22.927Z,-0.70
2023-02-07T00:33:33.967Z,-0.70
2023-02-07T00:33:44.936Z,-0.65
2023-02-07T00:33:55.710Z,-0.70
2023-02-07T00:34:06.764Z,-0.70
2023-02-07T00:34:17.764Z,-0.75
2023-02-07T00:34:28.496Z,-0.68
2023-02-07T00:34:39.537Z,-0.68
2023-02-07T00:34:50.540Z,-0.72
2023-02-07T00:35:01.271Z,-0.70
2023-02-07T00:35:12.346Z,-0.75
2023-02-07T00:35:23.307Z,-0.73
2023-02-07T00:35:34.077Z,-0.75
2023-02-07T00:35:45.142Z,-0.73
2023-02-07T00:35:56.116Z,-0.75
2023-02-07T00:36:06.904Z,-0.69
2023-02-07T00:36:17.927Z,-0.80
2023-02-07T00:36:28.894Z,-0.72
2023-02-07T00:36:39.660Z,-0.72
2023-02-07T00:36:50.710Z,-0.77
2023-02-07T00:37:01.704Z,-0.72
2023-02-07T00:37:12.448Z,-0.73
2023-02-07T00:37:23.494Z,-0.75
2023-02-07T00:37:34.462Z,-0.80
2023-02-07T00:37:45.229Z,-0.81
2023-02-07T00:37:56.278Z,-0.81
2023-02-07T00:38:07.241Z,-0.77
2023-02-07T00:38:18.012Z,-0.83
2023-02-07T00:38:29.058Z,-0.81
2023-02-07T00:38:40.027Z,-0.73
2023-02-07T00:38:50.810Z,-0.81
2023-02-07T00:39:01.842Z,-0.78
2023-02-07T00:39:12.811Z,-0.83
2023-02-07T00:39:23.593Z,-0.80
2023-02-07T00:39:34.640Z,-0.86
2023-02-07T00:39:45.625Z,-0.83
2023-02-07T00:39:56.374Z,-0.87
2023-02-07T00:40:07.442Z,-0.78
2023-02-07T00:40:18.411Z,-0.73
2023-02-07T00:40:29.174Z,-0.81
2023-02-07T00:40:40.219Z,-0.72
2023-02-07T00:40:51.200Z,-0.84
2023-02-07T00:41:01.967Z,-0.83
2023-02-07T00:41:13.028Z,-0.80
2023-02-07T00:41:24.008Z,-0.80
2023-02-07T00:41:34.771Z,-0.83
2023-02-07T00:41:45.819Z,-0.83
2023-02-07T00:41:56.800Z,-0.84
2023-02-07T00:42:07.566Z,-0.84
2023-02-07T00:42:18.613Z,-0.80
2023-02-07T00:42:29.582Z,-0.78
2023-02-07T00:42:40.363Z,-0.80
2023-02-07T00:42:51.405Z,-0.83
2023-02-07T00:43:02.390Z,-0.86
2023-02-07T00:43:21.460Z,-0.89
2023-02-07T00:43:30.047Z,-0.87
2023-02-07T00:43:36.148Z,-0.81
2023-02-07T00:43:45.736Z,-0.84
2023-02-07T00:43:56.787Z,-0.89
2023-02-07T00:44:07.748Z,-0.87
2023-02-07T00:44:18.530Z,-0.92
2023-02-07T00:44:29.567Z,-0.91
2023-02-07T00:44:40.530Z,-0.91
2023-02-07T00:44:51.303Z,-0.91
2023-02-07T00:45:02.361Z,-0.92
2023-02-07T00:45:13.334Z,-0.91
2023-02-07T00:45:24.107Z,-0.87
2023-02-07T00:45:35.445Z,-0.91
2023-02-07T00:45:45.987Z,-0.87
2023-02-07T00:45:56.774Z,-0.83
2023-02-07T00:46:07.846Z,-0.92
2023-02-07T00:46:18.834Z,-0.91
2023-02-07T00:46:29.562Z,-0.84
2023-02-07T00:46:40.609Z,-0.83
2023-02-07T00:46:51.586Z,-0.92
2023-02-07T00:47:02.342Z,-0.81
2023-02-07T00:47:13.398Z,-0.86
2023-02-07T00:47:24.380Z,-0.83
2023-02-07T00:47:35.144Z,-0.89
2023-02-07T00:47:46.200Z,-0.92
2023-02-07T00:47:57.169Z,-0.86
2023-02-07T00:48:07.936Z,-0.87
2023-02-07T00:48:18.981Z,-0.92
2023-02-07T00:48:29.958Z,-0.84
2023-02-07T00:48:40.739Z,-0.91
2023-02-07T00:48:51.760Z,-0.84
2023-02-07T00:49:02.745Z,-0.92
2023-02-07T00:49:13.498Z,-0.86
2023-02-07T00:49:24.546Z,-0.86
2023-02-07T00:49:35.510Z,-0.91
2023-02-07T00:49:46.288Z,-0.87
2023-02-07T00:49:57.354Z,-0.91
2023-02-07T00:50:08.353Z,-0.86
2023-02-07T00:50:19.111Z,-0.83
2023-02-07T00:50:30.156Z,-0.87
2023-02-07T00:50:41.127Z,-0.92
2023-02-07T00:50:51.910Z,-0.94
2023-02-07T00:51:02.954Z,-0.86
2023-02-07T00:51:13.933Z,-0.87
2023-02-07T00:51:24.688Z,-0.89
2023-02-07T00:51:35.739Z,-0.92
2023-02-07T00:51:46.717Z,-0.92
2023-02-07T00:51:57.488Z,-0.89
2023-02-07T00:52:08.535Z,-0.89
2023-02-07T00:52:19.512Z,-0.91
2023-02-07T00:52:30.264Z,-0.94
2023-02-07T00:52:41.310Z,-0.91
2023-02-07T00:52:52.283Z,-0.87
2023-02-07T00:53:03.058Z,-0.91
2023-02-07T00:53:14.107Z,-0.89
2023-02-07T00:53:25.079Z,-0.87
2023-02-07T00:53:35.842Z,-0.91
2023-02-07T00:53:46.889Z,-0.89
2023-02-07T00:53:57.856Z,-0.89
2023-02-07T00:54:08.629Z,-0.89
2023-02-07T00:54:19.676Z,-0.89
2023-02-07T00:54:30.646Z,-0.92
2023-02-07T00:54:41.414Z,-0.87
2023-02-07T00:54:52.490Z,-0.89
2023-02-07T00:55:03.441Z,-0.89
2023-02-07T00:55:14.240Z,-0.87
2023-02-07T00:55:25.294Z,-0.91
2023-02-07T00:55:36.571Z,-0.92
2023-02-07T00:55:46.869Z,-0.91
2023-02-07T00:55:57.935Z,-0.86
2023-02-07T00:56:08.925Z,-0.95
2023-02-07T00:56:19.670Z,-0.87
2023-02-07T00:56:30.715Z,-0.99
2023-02-07T00:56:41.691Z,-0.99
2023-02-07T00:56:52.455Z,-0.92
2023-02-07T00:57:03.504Z,-0.87
2023-02-07T00:57:14.479Z,-0.94
2023-02-07T00:57:25.241Z,-0.89
2023-02-07T00:57:36.292Z,-0.92
2023-02-07T00:57:47.258Z,-0.95
2023-02-07T00:57:58.033Z,-0.91
2023-02-07T00:58:09.096Z,-0.83
2023-02-07T00:58:20.058Z,-0.94
2023-02-07T00:58:30.818Z,-0.95
2023-02-07T00:58:41.865Z,-0.89
2023-02-07T00:58:52.832Z,-0.87
2023-02-07T00:59:03.606Z,-0.91
2023-02-07T00:59:14.654Z,-0.89
2023-02-07T00:59:25.615Z,-0.91
2023-02-07T00:59:36.385Z,-0.83
2023-02-07T00:59:47.427Z,-0.91
2023-02-07T00:59:58.419Z,-0.89
2023-02-07T01:00:09.174Z,-0.91
2023-02-07T01:00:20.218Z,-0.92
2023-02-07T01:00:31.260Z,-0.94
2023-02-07T01:00:42.153Z,-0.84
2023-02-07T01:00:52.826Z,-0.86
2023-02-07T01:01:03.377Z,-0.83
2023-02-07T01:01:14.120Z,-0.89
2023-02-07T01:01:25.153Z,-0.91
2023-02-07T01:01:36.147Z,-0.87
2023-02-07T01:01:46.886Z,-0.94
2023-02-07T01:01:57.950Z,-0.89
2023-02-07T01:02:08.909Z,-0.89
2023-02-07T01:02:19.677Z,-0.89
2023-02-07T01:02:30.733Z,-0.92
2023-02-07T01:02:41.703Z,-0.86
2023-02-07T01:02:52.479Z,-0.87
2023-02-07T01:03:03.512Z,-0.89
2023-02-07T01:03:14.477Z,-0.92
2023-02-07T01:03:25.241Z,-0.95
2023-02-07T01:03:36.291Z,-0.89
2023-02-07T01:03:47.265Z,-0.83
2023-02-07T01:03:58.044Z,-0.83
2023-02-07T01:04:09.074Z,-0.91
2023-02-07T01:04:20.086Z,-0.84
2023-02-07T01:04:30.944Z,-0.89
2023-02-07T01:04:41.502Z,-0.83
2023-02-07T01:04:52.553Z,-0.89
2023-02-07T01:05:03.412Z,-0.91
2023-02-07T01:05:13.900Z,-0.91
2023-02-07T01:05:24.867Z,-0.87
2023-02-07T01:05:36.167Z,-0.86
2023-02-07T01:05:46.249Z,-0.87
2023-02-07T01:05:57.217Z,-0.91
2023-02-07T01:06:08.006Z,-0.91
2023-02-07T01:06:19.040Z,-0.94
2023-02-07T01:06:30.021Z,-0.91
2023-02-07T01:06:40.778Z,-0.84
2023-02-07T01:06:51.833Z,-0.87
2023-02-07T01:07:02.802Z,-0.92
2023-02-07T01:07:13.571Z,-0.95
2023-02-07T01:07:24.615Z,-0.92
2023-02-07T01:07:35.584Z,-0.92
2023-02-07T01:07:46.349Z,-0.89
2023-02-07T01:07:57.405Z,-0.92
2023-02-07T01:08:08.365Z,-0.97
2023-02-07T01:08:19.133Z,-0.83
2023-02-07T01:08:30.177Z,-1.00
2023-02-07T01:08:41.149Z,-0.92
2023-02-07T01:08:51.910Z,-1.00
2023-02-07T01:09:02.955Z,-0.94
2023-02-07T01:09:13.925Z,-0.87
2023-02-07T01:09:24.702Z,-0.92
2023-02-07T01:09:35.761Z,-1.02
2023-02-07T01:09:46.729Z,-0.95
2023-02-07T01:09:57.518Z,-0.94
2023-02-07T01:10:08.542Z,-0.95
2023-02-07T01:10:19.513Z,-0.87
2023-02-07T01:10:30.282Z,-0.92
2023-02-07T01:10:41.344Z,-0.95
2023-02-07T01:10:52.313Z,-0.97
2023-02-07T01:11:03.093Z,-0.95
2023-02-07T01:11:14.145Z,-0.97
2023-02-07T01:11:25.119Z,-0.97
2023-02-07T01:11:35.907Z,-0.94
2023-02-07T01:11:46.957Z,-0.94
2023-02-07T01:11:57.917Z,-0.94
2023-02-07T01:12:08.692Z,-0.94
2023-02-07T01:12:19.732Z,-0.91
2023-02-07T01:12:30.707Z,-1.02
2023-02-07T01:12:41.479Z,-0.99
2023-02-07T01:12:52.525Z,-0.95
2023-02-07T01:13:03.490Z,-0.92
2023-02-07T01:13:14.267Z,-1.00
2023-02-07T01:13:25.318Z,-0.91
2023-02-07T01:13:36.294Z,-1.00
2023-02-07T01:13:47.069Z,-0.99
2023-02-07T01:13:58.096Z,-1.03
2023-02-07T01:14:09.078Z,-1.00
2023-02-07T01:14:19.839Z,-1.03
2023-02-07T01:14:30.893Z,-1.02
2023-02-07T01:14:41.854Z,-0.99
2023-02-07T01:14:52.634Z,-1.02
2023-02-07T01:15:03.692Z,-0.99
2023-02-07T01:15:14.648Z,-0.95
2023-02-07T01:15:25.413Z,-0.99
2023-02-07T01:15:36.748Z,-1.00
2023-02-07T01:15:47.361Z,-1.02
2023-02-07T01:15:58.163Z,-0.95
2023-02-07T01:16:09.211Z,-1.00
2023-02-07T01:16:20.209Z,-0.97
2023-02-07T01:16:30.964Z,-0.97
2023-02-07T01:16:42.012Z,-1.06
2023-02-07T01:16:52.981Z,-0.95
2023-02-07T01:17:03.750Z,-0.95
2023-02-07T01:17:14.788Z,-0.95
2023-02-07T01:17:25.761Z,-1.03
2023-02-07T01:17:36.533Z,-1.03
2023-02-07T01:17:47.580Z,-0.95
2023-02-07T01:17:58.545Z,-1.02
2023-02-07T01:18:09.327Z,-1.03
2023-02-07T01:18:20.373Z,-0.97
2023-02-07T01:18:31.346Z,-1.00
2023-02-07T01:18:42.113Z,-1.03
2023-02-07T01:18:53.168Z,-1.02
2023-02-07T01:19:04.137Z,-1.02
2023-02-07T01:19:14.913Z,-1.00
2023-02-07T01:19:25.950Z,-1.10
2023-02-07T01:19:36.920Z,-1.05
2023-02-07T01:19:47.694Z,-1.03
2023-02-07T01:19:58.743Z,-1.02
2023-02-07T01:20:09.718Z,-1.05
2023-02-07T01:20:20.484Z,-1.02
2023-02-07T01:20:31.521Z,-1.00
2023-02-07T01:20:42.507Z,-1.00
2023-02-07T01:20:53.304Z,-1.05
2023-02-07T01:21:04.356Z,-0.97
2023-02-07T01:21:15.326Z,-1.02
2023-02-07T01:21:26.121Z,-0.99
2023-02-07T01:21:36.704Z,-1.02
2023-02-07T01:21:47.669Z,-1.06
2023-02-07T01:21:58.440Z,-1.00
2023-02-07T01:22:09.481Z,-1.02
2023-02-07T01:22:20.452Z,-1.00
2023-02-07T01:22:31.216Z,-0.91
2023-02-07T01:22:42.264Z,-1.00
2023-02-07T01:22:53.230Z,-0.95
2023-02-07T01:23:03.998Z,-0.97
2023-02-07T01:23:15.044Z,-0.94
2023-02-07T01:23:26.019Z,-0.92
2023-02-07T01:23:36.788Z,-1.05
2023-02-07T01:23:47.847Z,-1.00
2023-02-07T01:23:58.823Z,-0.95
2023-02-07T01:24:09.585Z,-0.89
2023-02-07T01:24:20.631Z,-1.03
2023-02-07T01:24:31.606Z,-1.02
2023-02-07T01:24:42.382Z,-0.95
2023-02-07T01:24:53.431Z,-0.95
2023-02-07T01:25:04.422Z,-0.91
2023-02-07T01:25:15.164Z,-0.97
2023-02-07T01:25:26.210Z,-0.94
2023-02-07T01:25:37.509Z,-0.95
2023-02-07T01:25:47.818Z,-0.92
2023-02-07T01:25:58.877Z,-0.97
2023-02-07T01:26:09.844Z,-0.94
2023-02-07T01:26:20.623Z,-0.94
2023-02-07T01:26:31.688Z,-0.97
2023-02-07T01:26:42.641Z,-0.92
2023-02-07T01:26:53.403Z,-0.92
2023-02-07T01:27:04.453Z,-0.91
2023-02-07T01:27:15.430Z,-0.92
2023-02-07T01:27:26.200Z,-0.97
2023-02-07T01:27:37.244Z,-0.97
2023-02-07T01:27:48.295Z,-0.95
2023-02-07T01:27:59.026Z,-0.91
2023-02-07T01:28:10.108Z,-0.99
2023-02-07T01:28:21.066Z,-0.95
2023-02-07T01:28:31.800Z,-0.97
2023-02-07T01:28:42.837Z,-0.89
2023-02-07T01:28:53.813Z,-0.91
2023-02-07T01:29:04.577Z,-0.89
2023-02-07T01:29:15.630Z,-0.95
2023-02-07T01:29:26.590Z,-0.94
2023-02-07T01:29:37.362Z,-0.89
2023-02-07T01:29:48.408Z,-0.97
2023-02-07T01:29:59.381Z,-0.95
2023-02-07T01:30:10.148Z,-0.99
2023-02-07T01:30:21.195Z,-1.00
2023-02-07T01:30:32.324Z,-0.99
2023-02-07T01:30:43.184Z,-0.95
2023-02-07T01:30:53.720Z,-1.05
2023-02-07T01:31:04.808Z,-0.91
2023-02-07T01:31:15.668Z,-0.99
2023-02-07T01:31:26.269Z,-1.00
2023-02-07T01:31:36.921Z,-0.97
2023-02-07T01:31:47.711Z,-1.02
2023-02-07T01:31:58.794Z,-1.02
2023-02-07T01:32:09.721Z,-1.05
2023-02-07T01:32:20.494Z,-1.03
2023-02-07T01:32:31.546Z,-1.06
2023-02-07T01:32:42.519Z,-1.07
2023-02-07T01:32:53.279Z,-1.00
2023-02-07T01:33:04.316Z,-1.02
2023-02-07T01:33:15.285Z,-1.02
2023-02-07T01:33:26.054Z,-1.03
2023-02-07T01:33:37.095Z,-1.05
2023-02-07T01:33:48.065Z,-1.05
2023-02-07T01:33:58.835Z,-1.03
2023-02-07T01:34:09.879Z,-1.03
2023-02-07T01:34:20.846Z,-1.12
2023-02-07T01:34:31.617Z,-1.03
2023-02-07T01:34:42.662Z,-1.05
2023-02-07T01:34:53.629Z,-1.07
2023-02-07T01:35:04.406Z,-1.05
2023-02-07T01:35:15.463Z,-1.10
2023-02-07T01:35:26.422Z,-1.06
2023-02-07T01:35:37.465Z,-1.00
2023-02-07T01:35:48.083Z,-1.09
2023-02-07T01:35:59.061Z,-1.06
2023-02-07T01:36:09.841Z,-1.07
2023-02-07T01:36:20.893Z,-1.13
2023-02-07T01:36:31.854Z,-1.00
2023-02-07T01:36:42.669Z,-1.07
2023-02-07T01:36:53.171Z,-1.06
2023-02-07T01:37:04.132Z,-0.99
2023-02-07T01:37:14.910Z,-1.06
2023-02-07T01:37:25.948Z,-1.07
2023-02-07T01:37:36.918Z,-1.06
2023-02-07T01:37:47.691Z,-1.07
2023-02-07T01:37:58.736Z,-1.05
2023-02-07T01:38:09.699Z,-1.12
2023-02-07T01:38:20.472Z,-1.06
2023-02-07T01:38:31.523Z,-1.13
2023-02-07T01:38:42.504Z,-1.13
2023-02-07T01:38:53.263Z,-1.00
2023-02-07T01:39:04.307Z,-1.06
2023-02-07T01:39:15.280Z,-1.09
2023-02-07T01:39:26.057Z,-1.10
2023-02-07T01:39:37.110Z,-1.10
2023-02-07T01:39:48.071Z,-1.07
2023-02-07T01:39:58.840Z,-1.07
2023-02-07T01:40:09.903Z,-1.06
2023-02-07T01:40:20.855Z,-1.10
2023-02-07T01:40:31.622Z,-1.15
2023-02-07T01:40:42.667Z,-1.03
2023-02-07T01:40:53.643Z,-1.12
2023-02-07T01:41:04.414Z,-1.07
2023-02-07T01:41:15.466Z,-1.10
2023-02-07T01:41:26.431Z,-1.09
2023-02-07T01:41:37.210Z,-1.12
2023-02-07T01:41:48.258Z,-1.10
2023-02-07T01:41:59.219Z,-1.10
2023-02-07T01:42:09.999Z,-1.05
2023-02-07T01:42:21.050Z,-1.17
2023-02-07T01:42:32.011Z,-1.13
2023-02-07T01:42:42.805Z,-1.18
2023-02-07T01:42:53.857Z,-1.13
2023-02-07T01:43:04.821Z,-1.13
2023-02-07T01:43:15.586Z,-1.06
2023-02-07T01:43:26.796Z,-1.06
2023-02-07T01:43:37.173Z,-1.12
2023-02-07T01:43:47.938Z,-1.12
2023-02-07T01:43:58.990Z,-1.18
2023-02-07T01:44:09.967Z,-1.09
2023-02-07T01:44:20.740Z,-1.12
2023-02-07T01:44:31.788Z,-1.15
2023-02-07T01:44:42.761Z,-1.09
2023-02-07T01:44:53.530Z,-1.09
2023-02-07T01:45:04.576Z,-1.07
2023-02-07T01:45:15.550Z,-1.15
2023-02-07T01:45:26.313Z,-1.12
2023-02-07T01:45:37.706Z,-1.12
2023-02-07T01:45:48.292Z,-1.13
2023-02-07T01:45:59.078Z,-1.07
2023-02-07T01:46:10.162Z,-1.13
2023-02-07T01:46:21.095Z,-1.10
2023-02-07T01:46:31.921Z,-1.12
2023-02-07T01:46:42.934Z,-1.15
2023-02-07T01:46:53.911Z,-1.15
2023-02-07T01:47:04.685Z,-1.12
2023-02-07T01:47:15.733Z,-1.20
2023-02-07T01:47:26.778Z,-1.10
2023-02-07T01:47:37.552Z,-1.12
2023-02-07T01:47:48.608Z,-1.06
2023-02-07T01:47:59.566Z,-1.21
2023-02-07T01:48:10.348Z,-1.15
2023-02-07T01:48:21.394Z,-1.15
2023-02-07T01:48:32.360Z,-1.09
2023-02-07T01:48:43.125Z,-1.13
2023-02-07T01:48:54.170Z,-1.15
2023-02-07T01:49:05.148Z,-1.17
2023-02-07T01:49:15.902Z,-1.15
2023-02-07T01:49:26.948Z,-1.21
2023-02-07T01:49:37.925Z,-1.12
2023-02-07T01:49:48.697Z,-1.18
2023-02-07T01:49:59.753Z,-1.17
2023-02-07T01:50:10.762Z,-1.18
2023-02-07T01:50:21.501Z,-1.15
2023-02-07T01:50:32.553Z,-1.15
2023-02-07T01:50:43.528Z,-1.17
2023-02-07T01:50:54.287Z,-1.21
2023-02-07T01:51:05.352Z,-1.15
2023-02-07T01:51:16.301Z,-1.12
2023-02-07T01:51:27.082Z,-1.17
2023-02-07T01:51:38.144Z,-1.23
2023-02-07T01:51:49.127Z,-1.23
2023-02-07T01:51:59.911Z,-1.23
2023-02-07T01:52:10.957Z,-1.15
2023-02-07T01:52:22.407Z,-1.15
2023-02-07T01:52:32.590Z,-1.18
2023-02-07T01:52:43.800Z,-1.17
2023-02-07T01:52:54.253Z,-1.18
2023-02-07T01:53:05.187Z,-1.15
2023-02-07T01:53:15.666Z,-1.21
2023-02-07T01:53:26.924Z,-1.12
2023-02-07T01:53:37.621Z,-1.21
2023-02-07T01:53:48.662Z,-1.12
2023-02-07T01:53:59.633Z,-1.18
2023-02-07T01:54:10.396Z,-1.18
2023-02-07T01:54:21.444Z,-1.21
2023-02-07T01:54:32.415Z,-1.24
2023-02-07T01:54:43.183Z,-1.20
2023-02-07T01:54:54.229Z,-1.25
2023-02-07T01:55:05.199Z,-1.23
2023-02-07T01:55:15.988Z,-1.21
2023-02-07T01:55:27.022Z,-1.27
2023-02-07T01:55:38.338Z,-1.23
2023-02-07T01:55:48.627Z,-1.25
2023-02-07T01:55:59.669Z,-1.28
2023-02-07T01:56:15.396Z,-1.27
2023-02-07T01:56:31.172Z,-1.24
2023-02-07T01:56:33.600Z,-1.23
2023-02-07T01:56:43.481Z,-1.25
2023-02-07T01:56:54.249Z,-1.28
2023-02-07T01:57:06.037Z,-1.23
2023-02-07T01:57:15.910Z,-1.24
2023-02-07T01:57:26.696Z,-1.23
2023-02-07T01:57:37.746Z,-1.24
2023-02-07T01:57:48.710Z,-1.30
2023-02-07T01:57:59.468Z,-1.28
2023-02-07T01:58:10.521Z,-1.18
2023-02-07T01:58:21.505Z,-1.21
2023-02-07T01:58:32.537Z,-1.25
2023-02-07T01:58:43.048Z,-1.28
2023-02-07T01:58:54.018Z,-1.31
2023-02-07T01:59:04.791Z,-1.28
2023-02-07T01:59:16.128Z,-1.30
2023-02-07T01:59:26.526Z,-1.30
2023-02-07T01:59:37.300Z,-1.25
2023-02-07T01:59:48.366Z,-1.28
2023-02-07T01:59:59.354Z,-1.30
2023-02-07T02:00:10.122Z,-1.23
2023-02-07T02:00:21.156Z,-1.25
2023-02-07T02:00:32.140Z,-1.21
2023-02-07T02:00:42.923Z,-1.35
2023-02-07T02:00:53.520Z,-1.28
2023-02-07T02:01:04.468Z,-1.21
2023-02-07T02:01:15.263Z,-1.30
2023-02-07T02:01:26.351Z,-1.31
2023-02-07T02:01:37.646Z,-1.33
2023-02-07T02:01:48.391Z,-1.30
2023-02-07T02:01:59.414Z,-1.27
2023-02-07T02:02:10.399Z,-1.25
2023-02-07T02:02:21.175Z,-1.25
2023-02-07T02:02:32.247Z,-1.30
2023-02-07T02:02:43.277Z,-1.20
2023-02-07T02:02:54.061Z,-1.18
2023-02-07T02:03:05.076Z,-1.24
2023-02-07T02:03:16.042Z,-1.23
2023-02-07T02:03:26.823Z,-1.20
2023-02-07T02:03:37.875Z,-1.27
2023-02-07T02:03:48.840Z,-1.24
2023-02-07T02:03:59.757Z,-1.25
2023-02-07T02:04:10.310Z,-1.31
2023-02-07T02:04:21.269Z,-1.33
2023-02-07T02:04:32.039Z,-1.25
2023-02-07T02:04:43.102Z,-1.33
2023-02-07T02:04:54.310Z,-1.21
2023-02-07T02:05:05.041Z,-1.21
2023-02-07T02:05:16.091Z,-1.24
2023-02-07T02:05:27.237Z,-1.23
2023-02-07T02:05:38.289Z,-1.30
2023-02-07T02:05:48.902Z,-1.23
2023-02-07T02:05:59.872Z,-1.28
2023-02-07T02:06:10.639Z,-1.27
2023-02-07T02:06:21.689Z,-1.31
2023-02-07T02:06:32.658Z,-1.27
2023-02-07T02:06:43.437Z,-1.30
2023-02-07T02:06:54.480Z,-1.30
2023-02-07T02:07:05.457Z,-1.31
2023-02-07T02:07:16.240Z,-1.25
2023-02-07T02:07:27.486Z,-1.30
2023-02-07T02:07:37.921Z,-1.31
2023-02-07T02:07:48.707Z,-1.27
2023-02-07T02:07:59.737Z,-1.28
2023-02-07T02:08:10.714Z,-1.31
2023-02-07T02:08:21.658Z,-1.33
2023-02-07T02:08:32.150Z,-1.33
2023-02-07T02:08:43.120Z,-1.28
2023-02-07T02:08:53.889Z,-1.33
2023-02-07T02:09:04.950Z,-1.30
2023-02-07T02:09:15.921Z,-1.35
2023-02-07T02:09:26.677Z,-1.33
2023-02-07T02:09:38.056Z,-1.33
2023-02-07T02:09:48.486Z,-1.36
2023-02-07T02:09:59.230Z,-1.41
2023-02-07T02:10:10.279Z,-1.38
2023-02-07T02:10:21.270Z,-1.33
2023-02-07T02:10:32.009Z,-1.33
2023-02-07T02:10:43.060Z,-1.27
2023-02-07T02:10:54.022Z,-1.38
2023-02-07T02:11:04.792Z,-1.36
2023-02-07T02:11:15.849Z,-1.39
2023-02-07T02:11:26.817Z,-1.35
2023-02-07T02:11:37.594Z,-1.30
2023-02-07T02:11:48.658Z,-1.33
2023-02-07T02:11:59.634Z,-1.43
2023-02-07T02:12:10.528Z,-1.41
2023-02-07T02:12:21.074Z,-1.36
2023-02-07T02:12:32.041Z,-1.43
2023-02-07T02:12:43.003Z,-1.38
2023-02-07T02:12:53.511Z,-1.36
2023-02-07T02:13:04.478Z,-1.36
2023-02-07T02:13:15.245Z,-1.39
2023-02-07T02:13:26.446Z,-1.43
2023-02-07T02:13:36.884Z,-1.42
2023-02-07T02:13:47.647Z,-1.45
2023-02-07T02:13:58.695Z,-1.43
2023-02-07T02:14:09.711Z,-1.42
2023-02-07T02:14:20.485Z,-1.38
2023-02-07T02:14:31.535Z,-1.38
2023-02-07T02:14:42.508Z,-1.42
2023-02-07T02:14:53.276Z,-1.39
2023-02-07T02:15:04.317Z,-1.42
2023-02-07T02:15:15.287Z,-1.39
2023-02-07T02:15:26.051Z,-1.36
2023-02-07T02:15:37.774Z,-1.42
2023-02-07T02:15:47.889Z,-1.38
2023-02-07T02:15:58.655Z,-1.51
2023-02-07T02:16:09.695Z,-1.39
2023-02-07T02:16:20.735Z,-1.42
2023-02-07T02:16:31.620Z,-1.41
2023-02-07T02:16:42.126Z,-1.42
2023-02-07T02:16:53.104Z,-1.48
2023-02-07T02:17:03.890Z,-1.41
2023-02-07T02:17:14.920Z,-1.53
2023-02-07T02:17:25.887Z,-1.38
2023-02-07T02:17:36.741Z,-1.45
2023-02-07T02:17:47.360Z,-1.43
2023-02-07T02:17:58.324Z,-1.54
2023-02-07T02:18:09.348Z,-1.48
2023-02-07T02:18:19.847Z,-1.45
2023-02-07T02:18:30.820Z,-1.49
2023-02-07T02:18:41.584Z,-1.53
2023-02-07T02:18:52.917Z,-1.51
2023-02-07T02:19:03.340Z,-1.48
2023-02-07T02:19:14.111Z,-1.48
2023-02-07T02:19:25.555Z,-1.48
2023-02-07T02:19:35.969Z,-1.51
2023-02-07T02:19:47.142Z,-1.46
2023-02-07T02:19:57.690Z,-1.53
2023-02-07T02:20:08.712Z,-1.48
2023-02-07T02:20:19.480Z,-1.49
2023-02-07T02:20:30.525Z,-1.51